Главная страница
METAR-TAF:

METAR-TAF

Аэропорты :

Токио

Токио-Haneda, Япония

широта: 35-33N, долгота: 139-47E, высота над уровнем моря: 5 м

Текущие метеонаблюдения

Эта сводка был подготовлена 21 минут назад, в 07:00 UTC
Ветер 11 Узел от северо-восточный
Температура 16°C
Влажность 77%
Давление 1012 hPa
Видимость 10 км и более
небольшая облачность на высоте 1000 фута
Отдельные облака на высоте 2000 фута
Рассеянная облачность

METAR: RJTT 130700Z 05011KT 9999 FEW010 SCT020 BKN/// 16/12 Q1012 NOSIG RMK 1CU010 4CU020 A2990

Время: 16:21 (07:21 UTC)

Прогноз

Эта сводка был подготовлена 2 часа и 16 минут назад, в 05:05 UTC
Прогноз действительный с 13-го 06 UTC до 14-го 12 UTC
Ветер 16 Узел от северо-восточный
Видимость 10 км и более
небольшая облачность на высоте 1500 фута
Рассеянная облачность на высоте 3000 фута

TAF: RJTT 130505Z 1306/1412 04016KT 9999 FEW015 BKN030

Метеонаблюдения и прогнозы для более 4000 аэропортов (сводки METAR и TAF).

Имеющиеся станции представлены на карте желтыми и красными точками.

Чтобы увидеть название станции, наведите на нее мышь.

Затем щелкните, чтобы увидеть метеонаблюдения и метеопрогнозы.

Управление картой: чтобы увеличить масштаб, щелкните зеленые кнопки с черным крестиком; чтобы уменьшить масштаб, щелкните зеленую кнопку с тире; для просмотра соседних карт щелкайте зеленые стрелки.


METAR-TAF: